createdAt,value
2019-02-26T00:01:05.179Z,83.18
2019-02-26T00:03:35.362Z,83.83
2019-02-26T00:06:03.828Z,84.22
2019-02-26T00:08:33.526Z,83.07
2019-02-26T00:11:03.730Z,83.89
2019-02-26T00:13:54.425Z,83.46
2019-02-26T00:18:58.406Z,84.08
2019-02-26T00:21:28.255Z,84.12
2019-02-26T00:23:56.821Z,83.59
2019-02-26T00:26:25.329Z,83.33
2019-02-26T00:28:53.790Z,83.40
2019-02-26T00:31:24.316Z,83.97
2019-02-26T00:33:52.704Z,84.33
2019-02-26T00:36:40.347Z,84.30
2019-02-26T00:39:49.765Z,84.05
2019-02-26T00:42:21.489Z,83.75
2019-02-26T00:44:51.323Z,83.96
2019-02-26T00:47:19.133Z,84.81
2019-02-26T00:49:48.552Z,85.11
2019-02-26T00:52:18.104Z,85.28
2019-02-26T00:54:46.525Z,85.45
2019-02-26T00:57:15.069Z,84.96
2019-02-26T00:59:44.051Z,84.89
2019-02-26T01:02:13.640Z,85.46
2019-02-26T01:04:44.569Z,85.23
2019-02-26T01:07:12.345Z,85.27
2019-02-26T01:15:47.415Z,85.08
2019-02-26T01:18:18.005Z,84.23
2019-02-26T01:20:48.265Z,84.95
2019-02-26T01:23:18.716Z,85.40
2019-02-26T01:25:46.699Z,85.45
2019-02-26T01:28:16.446Z,85.61
2019-02-26T01:30:45.295Z,85.24
2019-02-26T01:33:13.723Z,85.59
2019-02-26T01:36:02.703Z,85.58
2019-02-26T01:38:31.637Z,85.23
2019-02-26T01:41:00.064Z,85.48
2019-02-26T01:43:28.530Z,85.99
2019-02-26T01:45:56.953Z,85.76
2019-02-26T01:48:25.387Z,85.66
2019-02-26T01:50:54.423Z,85.30
2019-02-26T01:53:24.000Z,85.82
2019-02-26T02:01:22.013Z,86.28
2019-02-26T02:03:53.254Z,86.98
2019-02-26T02:06:21.259Z,86.73
2019-02-26T02:08:50.646Z,86.51
2019-02-26T02:11:40.731Z,87.09
2019-02-26T02:14:10.430Z,87.07
2019-02-26T02:16:39.541Z,87.37
2019-02-26T02:19:47.902Z,87.77
2019-02-26T02:22:16.820Z,87.78
2019-02-26T02:24:48.410Z,87.66
2019-02-26T02:27:19.577Z,87.22
2019-02-26T02:29:48.830Z,87.42
2019-02-26T02:32:16.993Z,87.44
2019-02-26T02:34:45.459Z,87.84
2019-02-26T02:37:15.347Z,87.73
2019-02-26T02:39:44.052Z,87.37
2019-02-26T02:42:14.082Z,87.24
2019-02-26T02:44:44.835Z,87.02
2019-02-26T02:47:12.915Z,87.22
2019-02-26T02:49:42.487Z,87.25
2019-02-26T02:52:11.969Z,88.13
2019-02-26T02:54:44.101Z,88.43
2019-02-26T02:57:11.922Z,88.18
2019-02-26T03:05:02.110Z,87.89
2019-02-26T03:07:30.561Z,88.01
2019-02-26T03:12:52.188Z,87.91
2019-02-26T03:15:18.394Z,88.08
2019-02-26T03:17:46.823Z,88.33
2019-02-26T03:20:56.734Z,88.43
2019-02-26T03:23:25.429Z,88.39
2019-02-26T03:25:55.197Z,88.19
2019-02-26T03:28:24.123Z,89.18
2019-02-26T03:30:52.866Z,88.58
2019-02-26T03:33:21.401Z,89.05
2019-02-26T03:35:49.849Z,89.34
2019-02-26T03:38:20.641Z,89.01
2019-02-26T03:40:51.995Z,88.77
2019-02-26T03:43:19.502Z,88.13
2019-02-26T03:45:48.211Z,88.30
2019-02-26T03:48:37.364Z,88.81
2019-02-26T03:51:05.948Z,89.04
2019-02-26T03:53:36.315Z,89.29
2019-02-26T03:59:11.755Z,89.46
2019-02-26T04:02:23.267Z,88.82
2019-02-26T04:05:09.630Z,89.30
2019-02-26T04:07:59.647Z,88.55
2019-02-26T04:10:27.424Z,88.83
2019-02-26T04:12:57.977Z,88.82
2019-02-26T04:15:27.879Z,88.79
2019-02-26T04:17:56.200Z,88.94
2019-02-26T04:20:26.933Z,88.17
2019-02-26T04:22:56.754Z,88.26
2019-02-26T04:26:03.801Z,88.48
2019-02-26T04:29:10.937Z,88.14
2019-02-26T04:32:18.932Z,88.22
2019-02-26T04:35:28.049Z,88.44
2019-02-26T04:38:36.717Z,88.96
2019-02-26T04:41:45.318Z,88.90
2019-02-26T04:44:55.120Z,89.77
2019-02-26T04:48:03.993Z,89.97
2019-02-26T04:50:51.673Z,89.30
2019-02-26T04:53:20.140Z,89.84
2019-02-26T04:55:48.571Z,89.81
2019-02-26T04:58:18.455Z,89.91
2019-02-26T05:00:47.641Z,89.31
2019-02-26T05:03:18.095Z,89.31
2019-02-26T05:05:51.391Z,89.61
2019-02-26T05:10:52.444Z,89.78
2019-02-26T05:13:24.175Z,89.80
2019-02-26T05:15:51.865Z,89.94
2019-02-26T05:18:22.685Z,90.15
2019-02-26T05:20:50.470Z,90.47
2019-02-26T05:23:20.590Z,89.80
2019-02-26T05:25:49.060Z,90.12
2019-02-26T05:28:17.747Z,90.13
2019-02-26T05:30:49.581Z,90.80
2019-02-26T05:33:18.447Z,91.23
2019-02-26T05:35:48.992Z,90.79
2019-02-26T05:38:18.298Z,90.28
2019-02-26T05:40:48.182Z,90.21
2019-02-26T05:43:16.889Z,90.58
2019-02-26T05:45:45.333Z,91.14
2019-02-26T05:48:16.183Z,91.04
2019-02-26T05:50:44.784Z,91.06
2019-02-26T05:53:14.515Z,91.38
2019-02-26T05:55:45.119Z,91.39
2019-02-26T06:00:46.798Z,91.52
2019-02-26T06:03:18.272Z,90.92
2019-02-26T06:05:46.545Z,90.58
2019-02-26T06:08:15.555Z,90.71
2019-02-26T06:10:43.979Z,91.40
2019-02-26T06:15:46.072Z,90.64
2019-02-26T06:18:14.500Z,91.24
2019-02-26T06:20:42.948Z,90.98
2019-02-26T06:23:11.384Z,91.00
2019-02-26T06:25:39.810Z,90.53
2019-02-26T06:28:10.559Z,89.98
2019-02-26T06:30:38.483Z,90.04
2019-02-26T06:33:31.750Z,90.26
2019-02-26T06:35:59.011Z,90.78
2019-02-26T06:38:29.870Z,90.63
2019-02-26T06:40:57.053Z,91.15
2019-02-26T06:43:25.473Z,91.07
2019-02-26T06:45:53.993Z,90.70
2019-02-26T06:48:25.032Z,90.40
2019-02-26T06:50:52.630Z,89.96
2019-02-26T06:53:21.640Z,89.70
2019-02-26T06:59:07.413Z,91.02
2019-02-26T07:01:37.910Z,90.75
2019-02-26T07:04:06.223Z,90.51
2019-02-26T07:06:34.930Z,90.69
2019-02-26T07:11:59.272Z,92.76
2019-02-26T07:14:29.748Z,91.99
2019-02-26T07:16:59.094Z,90.72
2019-02-26T07:19:29.065Z,91.38
2019-02-26T07:22:39.808Z,91.17
2019-02-26T07:25:48.218Z,90.48
2019-02-26T07:28:17.574Z,89.95
2019-02-26T07:30:46.997Z,88.64
2019-02-26T07:33:37.112Z,88.34
2019-02-26T07:36:05.018Z,88.10
2019-02-26T07:38:41.007Z,87.64
2019-02-26T07:41:06.052Z,87.17
2019-02-26T07:43:36.680Z,87.36
2019-02-26T07:46:04.364Z,87.00
2019-02-26T07:48:33.717Z,87.13
2019-02-26T07:51:22.404Z,86.87
2019-02-26T07:53:51.715Z,86.87
2019-02-26T07:59:09.979Z,85.89
2019-02-26T08:01:39.885Z,85.06
2019-02-26T08:04:11.066Z,84.27
2019-02-26T08:06:39.283Z,84.23
2019-02-26T08:09:47.633Z,83.69
2019-02-26T08:12:16.092Z,83.50
2019-02-26T08:15:05.687Z,83.77
2019-02-26T08:17:33.978Z,84.45
2019-02-26T08:20:06.828Z,84.34
2019-02-26T08:22:34.576Z,84.29
2019-02-26T08:27:58.829Z,84.15
2019-02-26T08:30:26.805Z,83.50
2019-02-26T08:32:56.275Z,82.80
2019-02-26T08:35:25.432Z,83.34
2019-02-26T08:37:54.736Z,83.53
2019-02-26T08:40:42.477Z,83.14
2019-02-26T08:46:06.757Z,81.89
2019-02-26T08:48:34.987Z,81.33
2019-02-26T08:51:06.140Z,80.81
2019-02-26T08:53:33.980Z,80.43
2019-02-26T08:56:04.005Z,80.29
2019-02-26T08:58:32.586Z,80.05
2019-02-26T09:01:01.005Z,78.85
2019-02-26T09:03:29.456Z,78.29
2019-02-26T09:06:10.192Z,77.70
2019-02-26T09:08:47.190Z,77.33
2019-02-26T09:11:15.621Z,76.69
2019-02-26T09:13:44.159Z,75.89
2019-02-26T09:16:32.796Z,75.81
2019-02-26T09:19:02.433Z,75.29
2019-02-26T09:21:30.879Z,74.42
2019-02-26T09:24:01.915Z,74.67
2019-02-26T09:26:49.494Z,74.56
2019-02-26T09:29:19.662Z,73.37
2019-02-26T09:31:49.421Z,71.91
2019-02-26T09:34:17.999Z,71.81
2019-02-26T09:36:50.642Z,71.11
2019-02-26T09:39:16.585Z,70.44
2019-02-26T09:42:06.356Z,70.65
2019-02-26T09:44:35.915Z,70.72
2019-02-26T09:47:05.464Z,69.94
2019-02-26T09:49:35.792Z,69.56
2019-02-26T09:52:45.283Z,68.88
2019-02-26T09:55:54.926Z,68.52
2019-02-26T09:58:25.211Z,68.06
2019-02-26T10:00:54.187Z,66.69
2019-02-26T10:05:57.994Z,66.10
2019-02-26T10:08:30.573Z,66.00
2019-02-26T10:11:00.218Z,64.35
2019-02-26T10:13:28.521Z,63.24
2019-02-26T10:15:59.223Z,61.48
2019-02-26T10:18:47.409Z,61.79
2019-02-26T10:21:18.458Z,62.46
2019-02-26T10:23:51.306Z,60.84
2019-02-26T10:26:17.334Z,59.70
2019-02-26T10:28:51.030Z,58.15
2019-02-26T10:31:16.038Z,58.34
2019-02-26T10:33:46.350Z,56.64
2019-02-26T10:36:36.423Z,55.70
2019-02-26T10:42:39.630Z,54.89
2019-02-26T10:45:01.924Z,53.89
2019-02-26T10:47:32.230Z,53.64
2019-02-26T10:50:00.539Z,53.40
2019-02-26T10:52:28.973Z,52.84
2019-02-26T10:54:57.407Z,52.94
2019-02-26T10:57:28.505Z,53.56
2019-02-26T10:59:59.167Z,53.03
2019-02-26T11:02:27.954Z,53.54
2019-02-26T11:07:31.837Z,52.79
2019-02-26T11:10:00.302Z,52.48
2019-02-26T11:12:33.417Z,53.30
2019-02-26T11:15:01.393Z,53.25
2019-02-26T11:20:27.038Z,52.63
2019-02-26T11:23:14.268Z,53.22
2019-02-26T11:25:42.421Z,52.26
2019-02-26T11:28:12.979Z,52.08
2019-02-26T11:31:00.359Z,51.43
2019-02-26T11:33:28.788Z,51.96
2019-02-26T11:35:57.216Z,51.51
2019-02-26T11:38:25.672Z,51.33
2019-02-26T11:40:54.263Z,51.88
2019-02-26T11:43:25.985Z,51.61
2019-02-26T11:46:12.126Z,50.76
2019-02-26T11:48:40.552Z,50.61
2019-02-26T11:51:08.986Z,50.83
2019-02-26T11:56:13.035Z,49.50
2019-02-26T11:58:41.301Z,48.89
2019-02-26T12:01:29.380Z,48.75
2019-02-26T12:04:03.588Z,48.64
2019-02-26T12:06:29.480Z,48.36
2019-02-26T12:11:45.684Z,48.30
2019-02-26T12:14:16.404Z,48.60
2019-02-26T12:17:03.575Z,47.80
2019-02-26T12:19:34.326Z,48.22
2019-02-26T12:22:03.553Z,48.74
2019-02-26T12:27:26.217Z,48.53
2019-02-26T12:29:54.823Z,48.45
2019-02-26T12:32:24.931Z,47.90
2019-02-26T12:34:53.437Z,48.21
2019-02-26T12:37:21.896Z,47.56
2019-02-26T12:39:52.176Z,47.45
2019-02-26T12:42:21.677Z,48.00
2019-02-26T12:44:50.693Z,47.54
2019-02-26T12:47:21.881Z,47.16
2019-02-26T12:49:49.701Z,47.57
2019-02-26T12:52:37.480Z,46.78
2019-02-26T12:55:46.078Z,46.89
2019-02-26T12:58:17.655Z,46.39
2019-02-26T13:00:45.047Z,46.13
2019-02-26T13:06:25.720Z,45.91
2019-02-26T13:08:54.175Z,45.07
2019-02-26T13:17:04.282Z,43.72
2019-02-26T13:22:26.305Z,44.36
2019-02-26T13:24:54.783Z,44.16
2019-02-26T13:27:23.209Z,43.16
2019-02-26T13:29:55.191Z,43.66
2019-02-26T13:32:26.087Z,43.06
2019-02-26T13:34:55.646Z,43.21
2019-02-26T13:37:36.604Z,41.93
2019-02-26T13:46:05.016Z,41.71
2019-02-26T13:48:52.704Z,41.79
2019-02-26T13:51:40.454Z,41.70
2019-02-26T13:54:09.257Z,40.91
2019-02-26T13:56:37.684Z,41.05
2019-02-26T13:59:06.182Z,42.14
2019-02-26T14:04:08.856Z,40.89
2019-02-26T14:09:34.625Z,41.37
2019-02-26T14:14:50.527Z,41.47
2019-02-26T14:17:18.955Z,40.79
2019-02-26T14:19:47.382Z,41.76
2019-02-26T14:22:15.848Z,41.31
2019-02-26T14:24:44.276Z,41.39
2019-02-26T14:27:12.704Z,41.73
2019-02-26T14:29:41.164Z,41.52
2019-02-26T14:32:09.594Z,41.29
2019-02-26T14:34:38.021Z,42.00
2019-02-26T14:37:06.780Z,41.19
2019-02-26T14:39:35.208Z,40.48
2019-02-26T14:42:03.647Z,41.27
2019-02-26T14:44:32.408Z,41.41
2019-02-26T14:47:00.835Z,41.47
2019-02-26T14:49:29.265Z,41.09
2019-02-26T14:51:57.728Z,40.50
2019-02-26T14:54:27.024Z,41.07
2019-02-26T14:56:55.528Z,41.20
2019-02-26T14:59:25.699Z,41.18
2019-02-26T15:01:54.150Z,40.82
2019-02-26T15:04:22.637Z,40.44
2019-02-26T15:06:51.108Z,40.73
2019-02-26T15:09:19.627Z,40.13
2019-02-26T15:11:49.782Z,40.68
2019-02-26T15:16:52.807Z,39.68
2019-02-26T15:19:21.256Z,40.34
2019-02-26T15:21:49.683Z,40.44
2019-02-26T15:24:18.113Z,40.69
2019-02-26T15:26:46.584Z,39.92
2019-02-26T15:29:15.008Z,39.42
2019-02-26T15:31:43.455Z,39.24
2019-02-26T15:34:11.915Z,40.10
2019-02-26T15:36:40.436Z,39.57
2019-02-26T15:39:48.811Z,40.71
2019-02-26T15:42:19.096Z,40.72
2019-02-26T15:44:47.392Z,40.84
2019-02-26T15:47:15.846Z,41.49
2019-02-26T15:49:44.276Z,40.97
2019-02-26T15:52:32.364Z,41.61
2019-02-26T15:55:01.151Z,41.67
2019-02-26T15:57:31.123Z,41.75
2019-02-26T15:59:59.863Z,42.30
2019-02-26T16:02:49.635Z,42.78
2019-02-26T16:08:12.907Z,41.84
2019-02-26T16:10:42.600Z,41.38
2019-02-26T16:13:11.026Z,42.07
2019-02-26T16:16:19.401Z,42.40
2019-02-26T16:18:47.829Z,42.55
2019-02-26T16:21:18.453Z,42.82
2019-02-26T16:23:46.440Z,43.79
2019-02-26T16:26:14.867Z,44.36
2019-02-26T16:28:43.567Z,44.58
2019-02-26T16:31:12.361Z,44.27
2019-02-26T16:34:00.038Z,44.50
2019-02-26T16:36:28.769Z,44.99
2019-02-26T16:38:59.012Z,45.40
2019-02-26T16:41:27.788Z,46.59
2019-02-26T16:46:49.677Z,46.66
2019-02-26T16:49:37.484Z,47.68
2019-02-26T16:52:47.661Z,48.57
2019-02-26T16:55:56.124Z,49.25
2019-02-26T16:58:43.865Z,49.51
2019-02-26T17:01:54.833Z,48.96
2019-02-26T17:04:22.703Z,49.26
2019-02-26T17:06:53.923Z,49.63
2019-02-26T17:09:42.570Z,50.08
2019-02-26T17:12:10.993Z,50.32
2019-02-26T17:14:39.484Z,51.24
2019-02-26T17:17:07.949Z,52.09
2019-02-26T17:19:36.375Z,52.42
2019-02-26T17:22:05.238Z,53.47
2019-02-26T17:24:35.461Z,53.68
2019-02-26T17:27:05.715Z,54.79
2019-02-26T17:29:34.295Z,55.21
2019-02-26T17:32:04.740Z,55.43
2019-02-26T17:34:53.727Z,56.13
2019-02-26T17:39:56.353Z,56.86
2019-02-26T17:42:24.779Z,57.17
2019-02-26T17:44:54.622Z,57.57
2019-02-26T17:47:23.388Z,57.85
2019-02-26T17:49:52.123Z,58.50
2019-02-26T17:54:54.289Z,59.29
2019-02-26T17:57:22.808Z,59.15
2019-02-26T18:02:27.398Z,60.39
2019-02-26T18:04:55.375Z,60.98
2019-02-26T18:07:23.805Z,61.03
2019-02-26T18:09:52.237Z,61.56
2019-02-26T18:12:21.044Z,62.23
2019-02-26T18:14:49.466Z,62.44
2019-02-26T18:17:17.888Z,63.08
2019-02-26T18:19:49.441Z,63.58
2019-02-26T18:22:16.487Z,63.97
2019-02-26T18:24:45.192Z,64.63
2019-02-26T18:27:13.651Z,64.50
2019-02-26T18:29:42.079Z,64.96
2019-02-26T18:32:11.271Z,65.15
2019-02-26T18:34:40.960Z,65.16
2019-02-26T18:37:09.750Z,65.64
2019-02-26T18:39:38.170Z,66.31
2019-02-26T18:42:08.273Z,66.56
2019-02-26T18:44:36.785Z,66.66
2019-02-26T18:47:07.103Z,66.93
2019-02-26T18:49:35.552Z,67.36
2019-02-26T18:52:04.047Z,68.24
2019-02-26T18:54:32.476Z,68.01
2019-02-26T18:57:01.041Z,68.34
2019-02-26T18:59:29.779Z,69.00
2019-02-26T19:02:17.497Z,69.56
2019-02-26T19:04:48.281Z,69.27
2019-02-26T19:07:16.068Z,69.41
2019-02-26T19:09:44.970Z,70.16
2019-02-26T19:12:14.660Z,69.90
2019-02-26T19:14:43.088Z,70.37
2019-02-26T19:19:45.950Z,71.11
2019-02-26T19:27:42.990Z,72.15
2019-02-26T19:30:51.579Z,71.88
2019-02-26T19:33:22.520Z,71.60
2019-02-26T19:35:51.317Z,72.59
2019-02-26T19:38:19.821Z,72.66
2019-02-26T19:41:28.290Z,72.67
2019-02-26T19:43:57.566Z,73.18
2019-02-26T19:46:27.177Z,72.70
2019-02-26T19:48:57.471Z,72.98
2019-02-26T19:51:26.244Z,74.09
2019-02-26T19:53:54.843Z,74.09
2019-02-26T19:56:23.627Z,74.00
2019-02-26T19:58:52.736Z,74.34
2019-02-26T20:01:25.588Z,74.62
2019-02-26T20:03:51.943Z,74.71
2019-02-26T20:06:23.297Z,74.98
2019-02-26T20:08:50.592Z,75.06
2019-02-26T20:11:22.377Z,74.98
2019-02-26T20:13:49.335Z,76.00
2019-02-26T20:16:18.079Z,76.04
2019-02-26T20:18:46.551Z,76.21
2019-02-26T20:21:16.874Z,76.60
2019-02-26T20:23:50.726Z,76.67
2019-02-26T20:26:22.243Z,76.42
2019-02-26T20:28:51.738Z,77.52
2019-02-26T20:31:21.929Z,78.28
2019-02-26T20:33:50.926Z,77.21
2019-02-26T20:36:36.491Z,77.83
2019-02-26T20:39:07.907Z,78.21
2019-02-26T20:41:39.821Z,78.10
2019-02-26T20:44:10.067Z,78.00
2019-02-26T20:46:44.911Z,77.29
2019-02-26T20:49:17.700Z,77.88
2019-02-26T20:51:59.431Z,78.77
2019-02-26T20:54:32.841Z,78.47
2019-02-26T20:57:26.138Z,78.63
2019-02-26T21:00:12.763Z,78.50
2019-02-26T21:06:18.095Z,79.18
2019-02-26T21:08:47.208Z,79.32
2019-02-26T21:11:22.502Z,79.44
2019-02-26T21:13:57.996Z,79.92
2019-02-26T21:16:28.301Z,80.23
2019-02-26T21:19:02.704Z,80.48
2019-02-26T21:21:38.492Z,80.96
2019-02-26T21:24:07.383Z,80.96
2019-02-26T21:26:40.152Z,81.02
2019-02-26T21:29:11.909Z,80.68
2019-02-26T21:31:43.330Z,81.84
2019-02-26T21:34:13.888Z,81.37
2019-02-26T21:36:42.558Z,81.17
2019-02-26T21:39:13.747Z,81.99
2019-02-26T21:41:41.849Z,81.98
2019-02-26T21:44:15.601Z,81.89
2019-02-26T21:46:53.744Z,81.15
2019-02-26T21:49:23.599Z,81.31
2019-02-26T21:51:55.184Z,81.92
2019-02-26T21:54:25.793Z,82.33
2019-02-26T21:56:55.838Z,82.61
2019-02-26T21:59:24.261Z,82.81
2019-02-26T22:01:56.514Z,82.76
2019-02-26T22:04:25.101Z,83.11
2019-02-26T22:06:53.600Z,83.34
2019-02-26T22:09:22.042Z,83.65
2019-02-26T22:11:51.284Z,83.34
2019-02-26T22:14:36.506Z,82.89
2019-02-26T22:17:01.947Z,83.79
2019-02-26T22:19:37.710Z,84.23
2019-02-26T22:22:08.022Z,84.55
2019-02-26T22:24:37.812Z,84.57
2019-02-26T22:27:08.519Z,84.26
2019-02-26T22:29:41.397Z,85.77
2019-02-26T22:32:07.135Z,85.16
2019-02-26T22:34:35.564Z,84.25
2019-02-26T22:37:08.568Z,84.43
2019-02-26T22:39:38.815Z,84.73
2019-02-26T22:42:08.132Z,84.14
2019-02-26T22:44:40.442Z,84.49
2019-02-26T22:47:13.476Z,85.89
2019-02-26T22:49:41.836Z,85.98
2019-02-26T22:52:10.141Z,84.68
2019-02-26T22:54:40.745Z,84.43
2019-02-26T22:57:09.445Z,84.59
2019-02-26T22:59:38.568Z,84.80
2019-02-26T23:02:09.882Z,85.60
2019-02-26T23:04:53.720Z,85.65
2019-02-26T23:07:22.267Z,85.74
2019-02-26T23:09:52.440Z,85.85
2019-02-26T23:12:21.392Z,86.07
2019-02-26T23:14:50.025Z,86.12
2019-02-26T23:17:18.912Z,86.34
2019-02-26T23:19:47.905Z,86.50
2019-02-26T23:22:16.518Z,86.86
2019-02-26T23:24:45.569Z,86.74
2019-02-26T23:27:15.126Z,86.77
2019-02-26T23:29:45.005Z,86.86
2019-02-26T23:32:13.749Z,86.53
2019-02-26T23:34:46.304Z,86.43
2019-02-26T23:37:14.821Z,87.39
2019-02-26T23:39:43.627Z,86.38
2019-02-26T23:42:12.141Z,86.56
2019-02-26T23:44:40.602Z,87.81
2019-02-26T23:47:09.288Z,87.86
2019-02-26T23:49:38.060Z,87.26
2019-02-26T23:52:06.559Z,87.62
2019-02-26T23:54:35.078Z,87.43
2019-02-26T23:57:03.805Z,87.88
2019-02-26T23:59:34.853Z,88.45
